Patuxent River, MD

10:03 AM EDT on April 21, 2015 (GMT -0400)
APRSWXNET | | Change Station
CLOSE
Current Station
Personal Weather Station
Location: Lexington Park, MD
Elevation: 78 ft
Nearby Weather Stations

Elev 78 ft 38.25 °N, 76.45 °W | Updated 36 minutes ago

Partly Cloudy
Partly Cloudy
62 °F
Feels Like 62 °F
N
3
Wind Variable Wind from NNW
Gusts 9.0 mph

Today
High -- | Low -- °F
--% Chance of Precip.
Yesterday
High -- | Low -- °F
Precip. -- in
6:22 AM 7:47 PM
Waxing Crescent, 10% visible
Pressure 29.78 in
Visibility 10.0 miles
Clouds Few 5000 ft
Few 7000 ft
Dew Point 44 °F
Humidity 52%
Rainfall in
Snow Depth Not available.
UV 5 out of 12
Pollen 11.20 out of 12
Air Quality Not available.
Flu Activity Regional
METAR KNHK 211352Z 30013KT 10SM FEW050 FEW070 17/03 A2978 RMK AO2 SLP083 T01720028

More Conditions Fewer Conditions

Pressure 29.78 in
Visibility 10.0 miles
Clouds Few 5000 ft
Few 7000 ft
Dew Point 44 °F
Humidity 52%
Rainfall in
Snow Depth Not available.
UV 5 out of 12
Pollen 11.20 out of 12
Air Quality Not available.
Flu Activity Regional
METAR KNHK 211352Z 30013KT 10SM FEW050 FEW070 17/03 A2978 RMK AO2 SLP083 T01720028

More Conditions Fewer Conditions

10-Day Weather Forecast

Almanac

Astronomy

Apr. 21, 2015 Rise Set
Actual Time
Civil Twilight
Nautical Twilight
Astronomical Twilight
Moon
Length of Visible Light
Length of Day
Tomorrow will be .
, % of the Moon is Illuminated

Today's Extremes

State Highs State Lows

Community

WunderPhotos

Upload Photos

1,815,393 photos uploaded!

WunderBlogs® & News

Nearby

Air Quality

  Air Quality AQ Index Pollutant
Not available.

Snow Depth

Station Depth Elevation

Earthquake Activity

City Distance Mag. Time & Date
Minimum magnitude displayed is 2.5.

Coastal Water Temperatures

Place Temperature

Stations

Nearby Weather Stations

Station Location Temp. Windchill Dew Point Humidity Wind Precip. Elev Updated Type